createdAt,value
2022-11-07T00:01:41.249Z,4.36
2022-11-07T00:04:10.139Z,4.66
2022-11-07T00:06:39.867Z,4.54
2022-11-07T00:09:09.384Z,4.71
2022-11-07T00:11:36.844Z,4.72
2022-11-07T00:14:06.016Z,4.36
2022-11-07T00:16:33.781Z,4.57
2022-11-07T00:19:01.525Z,4.30
2022-11-07T00:21:32.761Z,4.44
2022-11-07T00:24:02.317Z,4.65
2022-11-07T00:26:29.851Z,4.74
2022-11-07T00:28:58.183Z,4.90
2022-11-07T00:31:25.475Z,4.59
2022-11-07T00:33:53.346Z,4.67
2022-11-07T00:36:26.459Z,4.61
2022-11-07T00:38:58.556Z,4.54
2022-11-07T00:41:26.244Z,4.83
2022-11-07T00:43:53.660Z,4.68
2022-11-07T00:46:21.049Z,4.85
2022-11-07T00:48:53.556Z,4.69
2022-11-07T00:51:22.160Z,4.92
2022-11-07T00:53:50.033Z,4.87
2022-11-07T00:56:18.548Z,4.79
2022-11-07T00:58:47.684Z,4.85
2022-11-07T01:01:16.302Z,4.71
2022-11-07T01:04:02.494Z,4.81
2022-11-07T01:06:30.783Z,4.83
2022-11-07T01:08:58.262Z,4.61
2022-11-07T01:11:25.976Z,4.43
2022-11-07T01:14:00.101Z,4.62
2022-11-07T01:16:28.266Z,4.79
2022-11-07T01:18:55.978Z,4.74
2022-11-07T01:21:24.481Z,4.78
2022-11-07T01:23:52.335Z,4.68
2022-11-07T01:26:23.157Z,4.69
2022-11-07T01:28:50.937Z,4.81
2022-11-07T01:31:18.350Z,4.73
2022-11-07T01:33:45.907Z,4.43
2022-11-07T01:36:15.391Z,4.33
2022-11-07T01:38:44.282Z,4.23
2022-11-07T01:41:21.602Z,4.26
2022-11-07T01:43:50.660Z,4.22
2022-11-07T01:46:18.377Z,4.50
2022-11-07T01:48:57.241Z,4.32
2022-11-07T01:51:24.674Z,4.46
2022-11-07T01:53:52.202Z,4.42
2022-11-07T01:56:19.693Z,4.55
2022-11-07T01:58:47.236Z,4.35
2022-11-07T02:01:14.972Z,4.20
2022-11-07T02:03:42.766Z,4.26
2022-11-07T02:06:11.390Z,4.56
2022-11-07T02:08:39.119Z,4.42
2022-11-07T02:11:06.660Z,4.35
2022-11-07T02:13:35.065Z,4.20
2022-11-07T02:16:02.908Z,4.08
2022-11-07T02:18:30.271Z,4.25
2022-11-07T02:20:57.832Z,4.30
2022-11-07T02:23:35.549Z,4.22
2022-11-07T02:26:03.118Z,4.19
2022-11-07T02:28:32.419Z,4.30
2022-11-07T02:30:59.769Z,4.21
2022-11-07T02:33:27.117Z,4.26
2022-11-07T02:35:54.666Z,4.29
2022-11-07T02:38:26.591Z,4.28
2022-11-07T02:40:55.648Z,4.32
2022-11-07T02:43:24.160Z,4.39
2022-11-07T02:45:51.868Z,4.32
2022-11-07T02:48:19.212Z,4.47
2022-11-07T02:50:46.899Z,4.43
2022-11-07T02:53:14.538Z,4.35
2022-11-07T02:55:42.773Z,4.32
2022-11-07T02:58:10.109Z,4.24
2022-11-07T03:00:37.472Z,4.24
2022-11-07T03:03:04.921Z,4.20
2022-11-07T03:05:32.444Z,4.31
2022-11-07T03:07:59.865Z,4.15
2022-11-07T03:10:27.251Z,4.35
2022-11-07T03:12:55.123Z,4.05
2022-11-07T03:15:22.630Z,3.99
2022-11-07T03:17:49.945Z,4.23
2022-11-07T03:20:18.457Z,4.27
2022-11-07T03:22:46.851Z,4.27
2022-11-07T03:25:14.303Z,4.51
2022-11-07T03:27:48.314Z,4.35
2022-11-07T03:30:15.745Z,4.57
2022-11-07T03:32:43.201Z,4.63
2022-11-07T03:35:11.053Z,4.31
2022-11-07T03:37:38.651Z,4.35
2022-11-07T03:40:06.554Z,4.29
2022-11-07T03:42:38.070Z,4.24
2022-11-07T03:45:06.673Z,3.98
2022-11-07T03:47:37.689Z,4.07
2022-11-07T03:50:05.602Z,4.09
2022-11-07T03:52:33.381Z,4.18
2022-11-07T03:55:00.924Z,4.15
2022-11-07T03:57:28.262Z,4.24
2022-11-07T03:59:56.350Z,4.11
2022-11-07T04:02:23.749Z,4.12
2022-11-07T04:04:51.211Z,4.19
2022-11-07T04:07:18.554Z,4.05
2022-11-07T04:09:46.240Z,4.13
2022-11-07T04:12:32.189Z,4.24
2022-11-07T04:15:19.226Z,4.05
2022-11-07T04:17:46.606Z,4.16
2022-11-07T04:20:13.868Z,4.16
2022-11-07T04:22:41.468Z,4.15
2022-11-07T04:25:09.306Z,4.24
2022-11-07T04:27:43.073Z,4.31
2022-11-07T04:30:30.065Z,4.03
2022-11-07T04:32:58.398Z,4.36
2022-11-07T04:35:29.976Z,4.31
2022-11-07T04:37:57.457Z,4.16
2022-11-07T04:40:25.054Z,4.08
2022-11-07T04:42:52.464Z,4.19
2022-11-07T04:45:19.910Z,4.36
2022-11-07T04:47:47.586Z,4.43
2022-11-07T04:50:16.403Z,4.38
2022-11-07T04:52:44.788Z,4.17
2022-11-07T04:55:16.586Z,4.29
2022-11-07T04:57:44.124Z,4.36
2022-11-07T05:00:11.910Z,4.37
2022-11-07T05:02:39.424Z,4.30
2022-11-07T05:05:07.534Z,4.29
2022-11-07T05:07:35.024Z,4.46
2022-11-07T05:10:02.491Z,4.52
2022-11-07T05:12:30.161Z,4.35
2022-11-07T05:14:58.054Z,4.31
2022-11-07T05:17:27.943Z,4.49
2022-11-07T05:19:55.808Z,4.58
2022-11-07T05:22:41.731Z,4.46
2022-11-07T05:25:09.402Z,4.36
2022-11-07T05:27:37.961Z,4.33
2022-11-07T19:03:58.883Z,4.93
2022-11-07T19:06:27.357Z,5.53
2022-11-07T19:08:54.758Z,5.30
2022-11-07T19:11:26.106Z,5.51
2022-11-07T19:13:53.857Z,5.53
2022-11-07T19:16:22.292Z,5.51
2022-11-07T19:18:50.072Z,5.80
2022-11-07T19:21:19.530Z,6.00
2022-11-07T19:23:48.580Z,6.05
2022-11-07T19:26:16.374Z,5.95
2022-11-07T19:28:43.978Z,6.01
2022-11-07T19:31:13.134Z,6.01
2022-11-07T19:33:41.843Z,6.14
2022-11-07T19:36:12.951Z,5.99
2022-11-07T19:38:40.820Z,5.54
2022-11-07T19:41:08.764Z,5.49
2022-11-07T19:43:36.470Z,5.15
2022-11-07T19:46:07.460Z,5.10
2022-11-07T19:48:35.320Z,4.98
2022-11-07T19:51:06.819Z,4.89
2022-11-07T19:53:34.270Z,4.80
2022-11-07T19:56:12.185Z,4.51
2022-11-07T19:58:40.034Z,4.38
2022-11-07T20:01:11.713Z,4.32
2022-11-07T20:03:39.422Z,4.23
2022-11-07T20:06:09.471Z,4.24
2022-11-07T20:08:36.790Z,4.27
2022-11-07T20:11:04.221Z,4.52
2022-11-07T20:13:34.867Z,4.31
2022-11-07T20:16:02.923Z,4.05
2022-11-07T20:18:30.374Z,4.08
2022-11-07T20:21:02.909Z,4.02
2022-11-07T20:23:30.469Z,4.04
2022-11-07T20:25:58.685Z,4.21
2022-11-07T20:28:26.195Z,3.96
2022-11-07T20:30:56.021Z,3.92
2022-11-07T20:33:24.089Z,3.97
2022-11-07T20:36:00.988Z,3.80
2022-11-07T20:38:28.712Z,3.77
2022-11-07T20:40:56.245Z,4.06
2022-11-07T20:43:24.103Z,3.80
2022-11-07T20:45:51.676Z,3.68
2022-11-07T20:48:20.131Z,3.64
2022-11-07T20:50:48.905Z,3.68
2022-11-07T20:53:17.203Z,3.59
2022-11-07T20:55:44.925Z,3.62
2022-11-07T20:58:12.780Z,3.71
2022-11-07T21:00:40.855Z,3.75
2022-11-07T21:03:13.433Z,3.64
2022-11-07T21:05:42.627Z,3.56
2022-11-07T21:08:10.222Z,3.58
2022-11-07T21:10:38.389Z,3.69
2022-11-07T21:13:05.852Z,3.54
2022-11-07T21:15:33.814Z,3.51
2022-11-07T21:18:01.804Z,3.56
2022-11-07T21:20:29.361Z,3.54
2022-11-07T21:22:56.706Z,3.42
2022-11-07T21:25:24.071Z,3.44
2022-11-07T21:27:51.584Z,3.43
2022-11-07T21:30:19.013Z,3.41
2022-11-07T21:32:47.251Z,3.26
2022-11-07T21:35:14.813Z,3.29
2022-11-07T21:37:42.878Z,3.43
2022-11-07T21:40:10.884Z,3.46
2022-11-07T21:42:38.224Z,3.54
2022-11-07T21:45:05.782Z,3.44
2022-11-07T21:47:33.759Z,3.40
2022-11-07T21:50:09.488Z,3.50
2022-11-07T21:52:45.847Z,3.69
2022-11-07T21:55:13.432Z,3.69
2022-11-07T21:57:40.938Z,3.69
2022-11-07T22:00:09.470Z,3.69
2022-11-07T22:02:37.512Z,3.69
2022-11-07T22:05:05.505Z,3.72
2022-11-07T22:07:34.918Z,3.45
2022-11-07T22:10:04.853Z,3.84
2022-11-07T22:12:34.381Z,3.83
2022-11-07T22:15:01.931Z,4.14
2022-11-07T22:17:32.761Z,4.21
2022-11-07T22:20:00.841Z,4.48
2022-11-07T22:22:28.553Z,4.49
2022-11-07T22:24:56.324Z,4.41
2022-11-07T22:27:24.079Z,4.54
2022-11-07T22:29:51.711Z,4.19
2022-11-07T22:32:19.093Z,4.59
2022-11-07T22:34:46.828Z,4.73
2022-11-07T22:37:14.444Z,4.59
2022-11-07T22:39:42.539Z,4.84
2022-11-07T22:42:10.684Z,4.88
2022-11-07T22:44:39.531Z,4.48
2022-11-07T22:47:07.222Z,4.53
2022-11-07T22:49:35.164Z,4.10
2022-11-07T22:52:02.504Z,3.89
2022-11-07T22:54:30.099Z,3.49
2022-11-07T22:56:57.486Z,3.74
2022-11-07T22:59:24.795Z,3.45
2022-11-07T23:01:52.526Z,3.20
2022-11-07T23:04:20.602Z,3.44
2022-11-07T23:06:48.595Z,3.38
2022-11-07T23:09:16.071Z,3.55
2022-11-07T23:11:47.038Z,3.57
2022-11-07T23:14:16.402Z,3.64
2022-11-07T23:16:47.945Z,3.27
2022-11-07T23:19:17.651Z,3.54
2022-11-07T23:21:44.935Z,3.69
2022-11-07T23:24:12.342Z,3.92
2022-11-07T23:26:40.496Z,3.80
2022-11-07T23:29:12.186Z,3.80
2022-11-07T23:31:40.358Z,3.88
2022-11-07T23:37:54.425Z,3.89
2022-11-07T23:40:22.050Z,3.69
2022-11-07T23:42:51.043Z,4.06
2022-11-07T23:45:37.198Z,4.11
2022-11-07T23:48:26.936Z,4.20
2022-11-07T23:51:03.842Z,4.16
2022-11-07T23:53:53.975Z,4.25
2022-11-07T23:56:22.621Z,3.92
2022-11-07T23:59:10.392Z,3.71
